createdAt,value
2022-11-28T00:00:22.398Z,5.78
2022-11-28T00:00:54.091Z,5.77
2022-11-28T00:01:27.219Z,5.86
2022-11-28T00:01:58.807Z,5.89
2022-11-28T00:02:30.398Z,5.92
2022-11-28T00:03:01.998Z,5.93
2022-11-28T00:03:33.996Z,5.87
2022-11-28T00:04:06.257Z,5.94
2022-11-28T00:04:37.842Z,5.91
2022-11-28T00:05:12.564Z,5.93
2022-11-28T00:05:47.035Z,5.95
2022-11-28T00:06:19.271Z,5.89
2022-11-28T00:06:51.061Z,6.00
2022-11-28T00:07:22.889Z,5.88
2022-11-28T00:07:55.679Z,5.95
2022-11-28T00:08:27.313Z,5.93
2022-11-28T00:08:59.789Z,5.99
2022-11-28T00:09:31.244Z,5.92
2022-11-28T00:10:03.512Z,5.92
2022-11-28T00:10:39.354Z,5.88
2022-11-28T00:11:12.553Z,5.91
2022-11-28T00:11:45.630Z,5.99
2022-11-28T00:12:17.097Z,5.98
2022-11-28T00:12:48.569Z,5.95
2022-11-28T00:13:20.031Z,5.99
2022-11-28T00:13:51.511Z,5.93
2022-11-28T00:14:23.033Z,5.97
2022-11-28T00:14:55.170Z,5.95
2022-11-28T00:15:26.769Z,5.94
2022-11-28T00:15:59.855Z,6.03
2022-11-28T00:16:31.466Z,6.01
2022-11-28T00:17:03.213Z,6.05
2022-11-28T00:17:34.683Z,6.11
2022-11-28T00:18:06.158Z,6.10
2022-11-28T00:18:37.641Z,6.07
2022-11-28T00:19:10.871Z,6.06
2022-11-28T00:19:42.387Z,6.02
2022-11-28T00:20:13.880Z,6.04
2022-11-28T00:20:45.395Z,5.97
2022-11-28T00:21:17.497Z,5.96
2022-11-28T00:21:49.001Z,5.97
2022-11-28T00:22:20.489Z,5.93
2022-11-28T00:22:52.245Z,5.96
2022-11-28T00:23:23.775Z,5.98
2022-11-28T00:23:55.236Z,5.98
2022-11-28T00:24:26.783Z,6.00
2022-11-28T00:24:58.343Z,6.09
2022-11-28T00:25:29.790Z,6.07
2022-11-28T00:26:04.060Z,6.05
2022-11-28T00:26:40.994Z,6.07
2022-11-28T00:27:12.468Z,6.18
2022-11-28T00:27:44.054Z,6.08
2022-11-28T00:28:15.513Z,6.12
2022-11-28T00:28:47.247Z,6.08
2022-11-28T00:29:18.717Z,6.06
2022-11-28T00:29:50.288Z,6.05
2022-11-28T00:30:21.775Z,6.01
2022-11-28T00:30:53.256Z,6.06
2022-11-28T00:31:30.320Z,6.08
2022-11-28T00:32:01.947Z,6.12
2022-11-28T00:32:33.470Z,6.11
2022-11-28T00:33:05.052Z,6.07
2022-11-28T00:33:36.590Z,6.13
2022-11-28T00:34:09.653Z,6.13
2022-11-28T00:34:41.442Z,6.15
2022-11-28T00:35:13.433Z,6.06
2022-11-28T00:35:44.937Z,6.11
2022-11-28T00:36:16.841Z,6.08
2022-11-28T00:36:48.777Z,6.11
2022-11-28T00:37:20.264Z,6.03
2022-11-28T00:37:51.758Z,6.01
2022-11-28T00:38:23.178Z,5.99
2022-11-28T00:38:54.868Z,6.12
2022-11-28T00:39:26.333Z,6.07
2022-11-28T00:39:57.807Z,6.05
2022-11-28T00:40:29.261Z,6.11
2022-11-28T00:41:02.528Z,6.09
2022-11-28T00:41:35.276Z,6.10
2022-11-28T00:42:06.723Z,6.24
2022-11-28T00:42:38.220Z,6.19
2022-11-28T00:43:11.595Z,6.24
2022-11-28T00:43:44.195Z,6.18
2022-11-28T00:44:15.729Z,6.20
2022-11-28T00:44:47.509Z,6.15
2022-11-28T00:45:19.126Z,6.24
2022-11-28T00:45:50.768Z,6.21
2022-11-28T00:46:23.457Z,6.18
2022-11-28T00:46:54.943Z,6.28
2022-11-28T00:47:26.414Z,6.17
2022-11-28T00:47:57.907Z,6.24
2022-11-28T00:48:29.393Z,6.13
2022-11-28T00:49:00.894Z,6.13
2022-11-28T00:49:32.402Z,6.20
2022-11-28T00:50:04.361Z,6.23
2022-11-28T00:50:35.876Z,6.27
2022-11-28T00:51:12.777Z,6.26
2022-11-28T00:51:44.262Z,6.24
2022-11-28T00:52:15.744Z,6.30
2022-11-28T00:52:47.217Z,6.32
2022-11-28T00:53:18.767Z,6.33
2022-11-28T00:53:51.710Z,6.31
2022-11-28T00:54:23.143Z,6.35
2022-11-28T00:54:54.749Z,6.32
2022-11-28T00:55:26.183Z,6.32
2022-11-28T00:55:57.648Z,6.34
2022-11-28T00:56:31.843Z,6.34
2022-11-28T00:57:03.320Z,6.42
2022-11-28T00:57:34.820Z,6.31
2022-11-28T00:58:06.306Z,6.29
2022-11-28T00:58:39.052Z,6.28
2022-11-28T00:59:10.640Z,6.29
2022-11-28T00:59:42.068Z,6.31
2022-11-28T01:00:14.160Z,6.29
2022-11-28T01:00:45.651Z,6.31
2022-11-28T01:01:25.127Z,6.33
2022-11-28T01:01:56.743Z,6.30
2022-11-28T01:02:28.318Z,6.34
2022-11-28T01:02:59.970Z,6.34
2022-11-28T01:03:31.435Z,6.38
2022-11-28T01:04:06.558Z,6.27
2022-11-28T01:04:38.038Z,6.20
2022-11-28T01:05:09.512Z,6.16
2022-11-28T01:05:41.998Z,6.30
2022-11-28T01:06:20.848Z,6.24
2022-11-28T01:06:52.371Z,6.36
2022-11-28T01:07:23.927Z,6.32
2022-11-28T01:07:55.464Z,6.29
2022-11-28T01:08:27.658Z,6.30
2022-11-28T01:09:02.001Z,6.35
2022-11-28T01:09:33.545Z,6.25
2022-11-28T01:10:05.558Z,6.29
2022-11-28T01:10:44.735Z,6.37
2022-11-28T01:11:16.284Z,6.38
2022-11-28T01:11:49.541Z,6.37
2022-11-28T01:12:21.105Z,6.43
2022-11-28T01:12:52.545Z,6.40
2022-11-28T01:13:24.211Z,6.35
2022-11-28T01:13:58.568Z,6.31
2022-11-28T01:14:30.523Z,6.37
2022-11-28T01:15:01.992Z,6.35
2022-11-28T01:15:33.450Z,6.45
2022-11-28T01:16:05.204Z,6.42
2022-11-28T01:16:36.963Z,6.39
2022-11-28T01:17:09.069Z,6.32
2022-11-28T01:17:40.608Z,6.34
2022-11-28T01:18:12.092Z,6.41
2022-11-28T01:18:43.607Z,6.37
2022-11-28T01:19:15.206Z,6.33
2022-11-28T01:19:46.655Z,6.31
2022-11-28T01:20:18.217Z,6.29
2022-11-28T01:20:49.704Z,6.32
2022-11-28T01:21:21.623Z,6.28
2022-11-28T01:21:53.230Z,6.37
2022-11-28T01:22:24.685Z,6.31
2022-11-28T01:22:56.215Z,6.33
2022-11-28T01:23:27.826Z,6.34
2022-11-28T01:23:59.302Z,6.39
2022-11-28T01:24:30.773Z,6.46
2022-11-28T01:25:02.262Z,6.41
2022-11-28T01:25:33.706Z,6.44
2022-11-28T01:26:07.117Z,6.46
2022-11-28T01:26:40.176Z,6.45
2022-11-28T01:27:11.786Z,6.39
2022-11-28T01:27:43.241Z,6.36
2022-11-28T01:28:14.706Z,6.42
2022-11-28T01:28:46.891Z,6.45
2022-11-28T01:29:18.562Z,6.41
2022-11-28T01:29:50.352Z,6.39
2022-11-28T01:30:21.817Z,6.38
2022-11-28T01:30:53.269Z,6.54
2022-11-28T01:31:27.071Z,6.60
2022-11-28T01:31:58.660Z,6.61
2022-11-28T01:32:30.614Z,6.46
2022-11-28T01:33:02.077Z,6.39
2022-11-28T01:33:33.753Z,6.38
2022-11-28T01:34:05.250Z,6.35
2022-11-28T01:34:36.873Z,6.47
2022-11-28T01:35:08.842Z,6.46
2022-11-28T01:35:40.317Z,6.47
2022-11-28T01:36:12.910Z,6.58
2022-11-28T01:36:44.383Z,6.51
2022-11-28T01:37:15.838Z,6.46
2022-11-28T01:37:47.360Z,6.50
2022-11-28T01:38:18.788Z,6.51
2022-11-28T01:38:50.416Z,6.56
2022-11-28T01:39:21.865Z,6.51
2022-11-28T01:39:53.375Z,6.54
2022-11-28T01:40:25.201Z,6.42
2022-11-28T01:40:56.808Z,6.46
2022-11-28T01:41:28.810Z,6.46
2022-11-28T01:42:00.326Z,6.41
2022-11-28T01:42:31.949Z,6.42
2022-11-28T01:43:03.601Z,6.44
2022-11-28T01:43:35.961Z,6.55
2022-11-28T01:44:27.462Z,6.48
2022-11-28T01:45:02.582Z,6.47
2022-11-28T01:45:34.126Z,6.44
2022-11-28T01:46:05.660Z,6.42
2022-11-28T01:46:37.471Z,6.47
2022-11-28T01:47:09.124Z,6.43
2022-11-28T01:47:41.167Z,6.62
2022-11-28T01:48:16.013Z,6.42
2022-11-28T01:48:47.673Z,6.39
2022-11-28T01:49:24.565Z,6.40
2022-11-28T01:49:56.192Z,6.39
2022-11-28T01:50:29.126Z,6.39
2022-11-28T01:51:02.445Z,6.51
2022-11-28T01:51:34.539Z,6.56
2022-11-28T01:52:10.185Z,6.58
2022-11-28T01:52:45.051Z,6.55
2022-11-28T01:53:16.929Z,6.57
2022-11-28T01:53:48.798Z,6.46
2022-11-28T01:54:23.021Z,6.46
2022-11-28T01:54:57.753Z,6.49
2022-11-28T01:55:34.082Z,6.51
2022-11-28T01:56:21.127Z,6.54
2022-11-28T01:56:59.210Z,6.53
2022-11-28T01:57:30.832Z,6.47
2022-11-28T01:58:02.331Z,6.55
2022-11-28T01:58:35.132Z,6.57
2022-11-28T01:59:08.045Z,6.59
2022-11-28T01:59:43.715Z,6.53
2022-11-28T02:00:18.753Z,6.57
2022-11-28T02:00:50.324Z,6.51
2022-11-28T02:01:24.348Z,6.60
2022-11-28T02:01:55.929Z,6.67
2022-11-28T02:02:35.162Z,6.57
2022-11-28T02:03:10.582Z,6.57
2022-11-28T02:03:47.377Z,6.70
2022-11-28T02:04:18.959Z,6.65
2022-11-28T02:04:50.589Z,6.62
2022-11-28T02:05:22.670Z,6.61
2022-11-28T02:05:54.304Z,6.61
2022-11-28T02:06:26.186Z,6.56
2022-11-28T02:06:57.666Z,6.65
2022-11-28T02:07:29.167Z,6.58
2022-11-28T02:08:00.810Z,6.68
2022-11-28T02:08:35.903Z,6.57
2022-11-28T02:09:13.715Z,6.66
2022-11-28T02:09:45.488Z,6.70
2022-11-28T02:10:21.168Z,6.58
2022-11-28T02:11:06.000Z,6.70
2022-11-28T02:11:43.190Z,6.71
2022-11-28T02:12:23.536Z,6.66
2022-11-28T02:12:59.842Z,6.70
2022-11-28T02:13:40.862Z,6.72
2022-11-28T02:14:20.995Z,6.69
2022-11-28T02:15:18.232Z,6.67
2022-11-28T02:16:10.892Z,6.82
2022-11-28T02:17:03.208Z,6.72
2022-11-28T02:17:41.147Z,6.77
2022-11-28T02:18:24.577Z,6.77
2022-11-28T02:19:33.318Z,6.67
2022-11-28T02:20:43.277Z,6.66
2022-11-28T02:21:26.842Z,6.79
2022-11-28T02:22:01.442Z,6.70
2022-11-28T02:22:46.900Z,6.69
2022-11-28T02:23:24.672Z,6.69
2022-11-28T02:24:23.926Z,6.59
2022-11-28T02:25:20.168Z,6.55
2022-11-28T02:26:22.719Z,6.67
2022-11-28T02:27:14.460Z,6.68
2022-11-28T02:28:19.046Z,6.68
2022-11-28T02:29:38.302Z,6.54
2022-11-28T02:30:15.016Z,6.60
2022-11-28T02:31:12.860Z,6.62
2022-11-28T02:32:02.562Z,6.59
2022-11-28T02:32:49.021Z,6.58
2022-11-28T02:33:32.037Z,6.49
2022-11-28T02:34:09.556Z,6.46
2022-11-28T02:34:50.748Z,6.42
2022-11-28T02:35:32.745Z,6.60
2022-11-28T02:36:18.598Z,6.51
2022-11-28T02:37:06.220Z,6.45
2022-11-28T02:37:45.402Z,6.42
2022-11-28T02:38:23.615Z,6.40
2022-11-28T02:39:13.219Z,6.49
2022-11-28T02:39:54.280Z,6.46
2022-11-28T02:40:38.017Z,6.49
2022-11-28T02:41:12.233Z,6.53
2022-11-28T02:42:09.299Z,6.54
2022-11-28T02:42:48.203Z,6.60
2022-11-28T02:43:52.453Z,6.53
2022-11-28T02:44:33.805Z,6.45
2022-11-28T02:45:28.237Z,6.39
2022-11-28T02:46:36.552Z,6.46
2022-11-28T02:47:27.849Z,6.53
2022-11-28T02:48:03.901Z,6.40
2022-11-28T02:48:44.022Z,6.49
2022-11-28T02:49:20.668Z,6.42
2022-11-28T02:50:14.070Z,6.42
2022-11-28T02:50:52.676Z,6.43
2022-11-28T02:51:31.577Z,6.43
2022-11-28T02:52:29.933Z,6.41
2022-11-28T02:53:13.193Z,6.38
2022-11-28T02:53:46.321Z,6.55
2022-11-28T02:54:18.606Z,6.41
2022-11-28T02:54:51.034Z,6.44
2022-11-28T02:55:23.232Z,6.47
2022-11-28T02:55:55.090Z,6.40
2022-11-28T02:56:26.749Z,6.43
2022-11-28T02:56:58.553Z,6.47
2022-11-28T02:57:41.564Z,6.48
2022-11-28T02:58:13.131Z,6.46
2022-11-28T02:58:44.611Z,6.37
2022-11-28T02:59:44.279Z,6.43
2022-11-28T03:00:45.935Z,6.52
2022-11-28T03:01:21.581Z,6.46
2022-11-28T03:01:53.221Z,6.54
2022-11-28T03:02:32.303Z,6.46
2022-11-28T03:03:14.390Z,6.44
2022-11-28T03:04:16.092Z,6.51
2022-11-28T03:05:08.213Z,6.54
2022-11-28T03:05:47.745Z,6.59
2022-11-28T03:06:32.682Z,6.62
2022-11-28T03:07:30.465Z,6.54
2022-11-28T03:08:17.521Z,6.53
2022-11-28T03:08:54.883Z,6.52
2022-11-28T03:09:42.782Z,6.50
2022-11-28T03:10:53.953Z,6.51
2022-11-28T03:11:34.993Z,6.57
2022-11-28T03:12:12.466Z,6.58
2022-11-28T03:13:10.595Z,6.58
2022-11-28T03:13:50.218Z,6.48
2022-11-28T03:14:49.550Z,6.54
2022-11-28T03:15:26.780Z,6.56
2022-11-28T03:16:27.659Z,6.55
2022-11-28T03:17:18.936Z,6.51
2022-11-28T03:17:59.175Z,6.56
2022-11-28T03:18:55.531Z,6.49
2022-11-28T03:19:28.053Z,6.47
2022-11-28T03:20:02.289Z,6.44
2022-11-28T03:21:00.282Z,6.42
2022-11-28T03:21:55.801Z,6.46
2022-11-28T03:22:29.901Z,6.41
2022-11-28T03:23:20.530Z,6.53
2022-11-28T03:23:56.587Z,6.57
2022-11-28T03:24:43.385Z,6.46
2022-11-28T03:25:39.302Z,6.42
2022-11-28T03:26:30.552Z,6.44
2022-11-28T03:27:07.764Z,6.48
2022-11-28T03:27:45.428Z,6.61
2022-11-28T03:28:24.312Z,6.55
2022-11-28T03:29:01.402Z,6.51
2022-11-28T03:29:40.157Z,6.41
2022-11-28T03:30:16.973Z,6.42
2022-11-28T03:30:53.234Z,6.46
2022-11-28T03:31:30.692Z,6.55
2022-11-28T03:32:06.699Z,6.48
2022-11-28T03:32:38.894Z,6.40
2022-11-28T03:33:12.813Z,6.40
2022-11-28T03:33:52.834Z,6.46
2022-11-28T03:34:29.013Z,6.56
2022-11-28T03:35:06.740Z,6.60
2022-11-28T03:35:43.417Z,6.48
2022-11-28T03:36:18.447Z,6.44
2022-11-28T03:37:03.444Z,6.41
2022-11-28T03:37:38.328Z,6.54
2022-11-28T03:38:40.339Z,6.55
2022-11-28T03:39:14.933Z,6.56
2022-11-28T03:39:50.560Z,6.49
2022-11-28T03:40:25.310Z,6.64
2022-11-28T03:40:59.601Z,6.53
2022-11-28T03:41:34.916Z,6.50
2022-11-28T03:42:29.481Z,6.50
2022-11-28T03:43:04.045Z,6.46
2022-11-28T03:43:41.908Z,6.42
2022-11-28T03:44:23.597Z,6.42
2022-11-28T03:45:10.579Z,6.42
2022-11-28T03:45:49.658Z,6.51
2022-11-28T03:46:24.026Z,6.49
2022-11-28T03:46:58.011Z,6.46
2022-11-28T03:47:34.412Z,6.56
2022-11-28T03:48:13.822Z,6.54
2022-11-28T03:48:47.573Z,6.43
2022-11-28T03:49:32.045Z,6.54
2022-11-28T03:50:09.045Z,6.49
2022-11-28T03:50:44.868Z,6.42
2022-11-28T03:51:18.984Z,6.53
2022-11-28T03:51:56.753Z,6.64
2022-11-28T03:52:31.951Z,6.57
2022-11-28T03:53:06.573Z,6.50
2022-11-28T03:54:08.097Z,6.44
2022-11-28T03:54:49.950Z,6.47
2022-11-28T03:55:43.872Z,6.37
2022-11-28T03:56:22.174Z,6.46
2022-11-28T03:57:02.377Z,6.46
2022-11-28T03:57:37.518Z,6.50
2022-11-28T03:58:18.197Z,6.46
2022-11-28T03:58:55.007Z,6.45
2022-11-28T03:59:32.387Z,6.44
2022-11-28T04:00:08.569Z,6.36
2022-11-28T04:00:51.993Z,6.34
2022-11-28T04:01:34.407Z,6.49
2022-11-28T04:02:28.294Z,6.45
2022-11-28T04:03:11.833Z,6.38
2022-11-28T04:03:58.513Z,6.32
2022-11-28T04:04:46.067Z,6.38
2022-11-28T04:05:23.608Z,6.33
2022-11-28T04:06:02.422Z,6.37
2022-11-28T04:07:00.153Z,6.41
2022-11-28T04:07:37.450Z,6.40
2022-11-28T04:08:14.241Z,6.49
2022-11-28T04:08:50.325Z,6.53
2022-11-28T04:09:48.228Z,6.52
2022-11-28T04:10:33.562Z,6.46
2022-11-28T04:11:13.655Z,6.40
2022-11-28T04:11:51.508Z,6.33
2022-11-28T04:12:51.719Z,6.44
2022-11-28T04:13:32.233Z,6.50
2022-11-28T04:14:10.049Z,6.48
2022-11-28T04:14:47.806Z,6.45
2022-11-28T04:15:54.589Z,6.47
2022-11-28T04:16:36.524Z,6.44
2022-11-28T04:17:17.509Z,6.41
2022-11-28T04:17:59.744Z,6.40
2022-11-28T04:18:40.112Z,6.38
2022-11-28T04:19:17.076Z,6.32
2022-11-28T04:19:55.258Z,6.39
2022-11-28T04:20:26.702Z,6.36
2022-11-28T04:21:08.835Z,6.36
2022-11-28T04:22:15.485Z,6.34
2022-11-28T04:22:55.374Z,6.33
2022-11-28T04:23:27.169Z,6.34
2022-11-28T04:24:04.143Z,6.36
2022-11-28T04:24:39.571Z,6.31
2022-11-28T04:25:15.032Z,6.32
2022-11-28T04:25:55.694Z,6.36
2022-11-28T04:26:38.912Z,6.33
2022-11-28T04:27:13.737Z,6.28
2022-11-28T04:27:49.066Z,6.39
2022-11-28T04:28:23.691Z,6.40
2022-11-28T04:28:56.765Z,6.38
2022-11-28T04:29:33.199Z,6.41
2022-11-28T04:30:05.728Z,6.36
2022-11-28T04:30:38.326Z,6.44
2022-11-28T04:31:09.941Z,6.40
2022-11-28T04:31:43.411Z,6.41
2022-11-28T04:32:16.376Z,6.37
2022-11-28T04:32:50.645Z,6.52
2022-11-28T04:33:24.210Z,6.38
2022-11-28T04:34:00.036Z,6.39
2022-11-28T04:34:33.240Z,6.32
2022-11-28T04:35:32.705Z,6.38
2022-11-28T04:36:05.643Z,6.39
2022-11-28T04:36:40.359Z,6.28
2022-11-28T04:37:16.893Z,6.38
2022-11-28T04:37:49.688Z,6.29
2022-11-28T04:38:23.607Z,6.30
2022-11-28T04:38:56.736Z,6.30
2022-11-28T04:39:32.752Z,6.25
2022-11-28T04:40:07.727Z,6.25
2022-11-28T04:40:49.190Z,6.29
2022-11-28T04:41:24.953Z,6.33
2022-11-28T04:42:03.174Z,6.30
2022-11-28T04:42:45.671Z,6.25
2022-11-28T04:43:28.235Z,6.35
2022-11-28T04:44:05.094Z,6.42
2022-11-28T04:44:52.140Z,6.35
2022-11-28T04:45:36.059Z,6.33
2022-11-28T04:46:13.427Z,6.38
2022-11-28T04:46:48.508Z,6.35
2022-11-28T04:47:20.049Z,6.34
2022-11-28T04:47:51.500Z,6.32
2022-11-28T04:48:23.193Z,6.40
2022-11-28T04:48:55.218Z,6.38
2022-11-28T04:49:28.390Z,6.32
2022-11-28T04:49:59.961Z,6.44
2022-11-28T04:50:42.653Z,6.38
2022-11-28T04:51:22.200Z,6.37
2022-11-28T04:52:30.997Z,6.41
2022-11-28T04:53:13.924Z,6.28
2022-11-28T04:54:01.257Z,6.27
2022-11-28T04:54:45.176Z,6.25
2022-11-28T04:55:43.068Z,6.28
2022-11-28T04:56:21.554Z,6.32
2022-11-28T04:56:58.109Z,6.35
2022-11-28T04:57:50.678Z,6.47
2022-11-28T04:58:39.798Z,6.42
2022-11-28T04:59:12.838Z,6.44
2022-11-28T04:59:44.497Z,6.46
2022-11-28T05:00:19.282Z,6.42
2022-11-28T05:00:53.147Z,6.49
2022-11-28T05:01:26.468Z,6.39
2022-11-28T05:01:58.877Z,6.43
2022-11-28T05:02:30.873Z,6.45
2022-11-28T05:03:02.914Z,6.38
2022-11-28T05:03:37.724Z,6.40
2022-11-28T05:04:13.068Z,6.40
2022-11-28T05:04:45.285Z,6.41
2022-11-28T05:05:19.663Z,6.36
2022-11-28T05:05:51.672Z,6.45
2022-11-28T05:06:31.153Z,6.39
2022-11-28T05:07:07.497Z,6.39
2022-11-28T05:07:39.111Z,6.38
2022-11-28T05:08:11.001Z,6.37
2022-11-28T05:08:42.458Z,6.41
2022-11-28T05:09:14.195Z,6.45
2022-11-28T05:09:45.636Z,6.39
2022-11-28T05:10:17.553Z,6.45
2022-11-28T05:10:49.253Z,6.40
2022-11-28T05:11:21.009Z,6.45
2022-11-28T05:11:52.475Z,6.44
2022-11-28T05:12:23.925Z,6.38
2022-11-28T05:12:55.439Z,6.39
2022-11-28T05:13:26.961Z,6.38
2022-11-28T05:13:58.642Z,6.34
2022-11-28T05:14:30.288Z,6.33
2022-11-28T05:15:01.819Z,6.28
2022-11-28T05:15:33.340Z,6.36
2022-11-28T05:16:05.834Z,6.32
2022-11-28T05:16:37.394Z,6.29
2022-11-28T05:17:11.991Z,6.31
2022-11-28T05:17:43.549Z,6.37
2022-11-28T05:18:15.112Z,6.33
2022-11-28T05:18:46.605Z,6.43
2022-11-28T05:19:18.417Z,6.38
2022-11-28T05:19:49.844Z,6.51
2022-11-28T05:20:21.365Z,6.41
2022-11-28T05:20:52.852Z,6.37
2022-11-28T05:21:24.384Z,6.37
2022-11-28T05:21:55.967Z,6.44
2022-11-28T05:22:27.505Z,6.44
2022-11-28T05:22:58.960Z,6.39
2022-11-28T05:23:30.413Z,6.32
2022-11-28T05:24:01.948Z,6.29
2022-11-28T05:24:33.406Z,6.32
2022-11-28T05:25:06.117Z,6.32
2022-11-28T05:25:39.814Z,6.38
2022-11-28T05:26:14.617Z,6.36
2022-11-28T05:26:46.134Z,6.34
2022-11-28T05:27:17.587Z,6.38
2022-11-28T05:27:49.145Z,6.36
2022-11-28T05:28:20.642Z,6.35
2022-11-28T05:28:52.574Z,6.35
2022-11-28T05:29:25.409Z,6.31
2022-11-28T05:29:56.836Z,6.30
2022-11-28T05:30:28.283Z,6.33
2022-11-28T05:31:00.918Z,6.32
2022-11-28T05:31:32.470Z,6.42
2022-11-28T05:32:04.473Z,6.40
2022-11-28T05:32:36.478Z,6.35
2022-11-28T05:33:07.945Z,6.42
2022-11-28T05:33:39.749Z,6.53
2022-11-28T05:34:11.254Z,6.50
2022-11-28T05:34:43.001Z,6.57
2022-11-28T05:35:14.855Z,6.49
2022-11-28T05:35:46.290Z,6.45
2022-11-28T05:36:17.961Z,6.40
2022-11-28T05:36:49.403Z,6.38
2022-11-28T05:37:20.833Z,6.40
2022-11-28T05:37:52.286Z,6.46
2022-11-28T05:38:23.902Z,6.45
2022-11-28T05:38:56.022Z,6.51
2022-11-28T05:39:27.666Z,6.38
2022-11-28T05:39:59.327Z,6.36
2022-11-28T05:40:30.805Z,6.34
2022-11-28T05:41:02.837Z,6.36
2022-11-28T05:41:34.732Z,6.33
2022-11-28T05:42:06.323Z,6.29
2022-11-28T05:42:37.821Z,6.28
2022-11-28T05:43:09.389Z,6.32
2022-11-28T05:43:40.855Z,6.30
2022-11-28T05:44:12.309Z,6.28
2022-11-28T05:44:43.867Z,6.44
2022-11-28T05:45:15.527Z,6.35
2022-11-28T05:45:47.080Z,6.31
2022-11-28T05:46:19.183Z,6.40
2022-11-28T05:46:50.818Z,6.41
2022-11-28T05:47:23.865Z,6.42
2022-11-28T05:47:55.383Z,6.39
2022-11-28T05:48:27.288Z,6.38
2022-11-28T05:48:58.823Z,6.41
2022-11-28T05:49:30.272Z,6.36
2022-11-28T05:50:01.740Z,6.30
2022-11-28T05:50:38.498Z,6.32
2022-11-28T05:51:11.651Z,6.44
2022-11-28T05:51:43.120Z,6.37
2022-11-28T05:52:14.568Z,6.34
2022-11-28T05:52:46.003Z,6.33
2022-11-28T05:53:19.271Z,6.36
2022-11-28T05:53:50.913Z,6.32
2022-11-28T05:54:22.500Z,6.31
2022-11-28T05:54:53.953Z,6.33
2022-11-28T05:55:25.495Z,6.36
2022-11-28T05:55:56.941Z,6.35
2022-11-28T05:56:28.454Z,6.30
2022-11-28T05:57:00.030Z,6.32
2022-11-28T05:57:32.119Z,6.40
2022-11-28T05:58:03.732Z,6.39
2022-11-28T05:58:35.385Z,6.37
2022-11-28T05:59:06.873Z,6.34
2022-11-28T05:59:38.353Z,6.32
2022-11-28T06:00:10.365Z,6.36
2022-11-28T06:00:45.127Z,6.46
2022-11-28T06:01:19.140Z,6.39
2022-11-28T06:01:50.748Z,6.36
2022-11-28T06:02:22.278Z,6.37
2022-11-28T06:02:58.401Z,6.40
2022-11-28T06:03:32.686Z,6.35
2022-11-28T06:04:04.263Z,6.34
2022-11-28T06:04:36.232Z,6.38
2022-11-28T06:05:27.641Z,6.42
2022-11-28T06:05:59.377Z,6.42
2022-11-28T06:06:33.545Z,6.35
2022-11-28T06:07:05.074Z,6.34
2022-11-28T06:07:36.593Z,6.30
2022-11-28T06:08:08.137Z,6.30
2022-11-28T06:08:40.440Z,6.39
2022-11-28T06:09:11.908Z,6.37
2022-11-28T06:09:43.473Z,6.36
2022-11-28T06:10:15.052Z,6.34
2022-11-28T06:10:56.281Z,6.41
2022-11-28T06:11:30.603Z,6.35
2022-11-28T06:12:02.263Z,6.33
2022-11-28T06:12:34.001Z,6.34
2022-11-28T06:13:05.535Z,6.34
2022-11-28T06:13:37.008Z,6.36
2022-11-28T06:14:09.879Z,6.34
2022-11-28T06:14:41.400Z,6.36
2022-11-28T06:15:12.889Z,6.40
2022-11-28T06:15:45.067Z,6.35
2022-11-28T06:16:20.289Z,6.36
2022-11-28T06:16:51.887Z,6.38
2022-11-28T06:17:23.534Z,6.34
2022-11-28T06:17:55.703Z,6.34
2022-11-28T06:18:27.252Z,6.31
2022-11-28T06:19:00.944Z,6.38
2022-11-28T06:19:32.644Z,6.39
2022-11-28T06:20:04.962Z,6.39
2022-11-28T06:20:36.487Z,6.45
2022-11-28T06:21:09.597Z,6.49
2022-11-28T06:21:41.119Z,6.38
2022-11-28T06:22:12.554Z,6.40
2022-11-28T06:22:46.553Z,6.40
2022-11-28T06:23:18.121Z,6.36
2022-11-28T06:23:49.756Z,6.36
2022-11-28T06:24:21.196Z,6.41
2022-11-28T06:24:52.665Z,6.46
2022-11-28T06:25:24.208Z,6.54
2022-11-28T06:25:55.653Z,6.41
2022-11-28T06:26:28.717Z,6.41
2022-11-28T06:27:00.190Z,6.41
2022-11-28T06:27:31.772Z,6.48
2022-11-28T06:28:03.341Z,6.41
2022-11-28T06:28:35.653Z,6.36
2022-11-28T06:29:07.108Z,6.40
2022-11-28T06:29:38.585Z,6.36
2022-11-28T06:30:10.215Z,6.34
2022-11-28T06:30:43.459Z,6.35
2022-11-28T06:31:25.248Z,6.40
2022-11-28T06:31:56.855Z,6.33
2022-11-28T06:32:28.465Z,6.37
2022-11-28T06:32:59.924Z,6.37
2022-11-28T06:33:31.452Z,6.48
2022-11-28T06:34:03.082Z,6.50
2022-11-28T06:34:34.586Z,6.40
2022-11-28T06:35:06.510Z,6.40
2022-11-28T06:35:37.958Z,6.41
2022-11-28T06:36:10.435Z,6.41
2022-11-28T06:36:43.109Z,6.55
2022-11-28T06:37:14.590Z,6.46
2022-11-28T06:37:46.037Z,6.45
2022-11-28T06:38:17.502Z,6.41
2022-11-28T06:38:49.121Z,6.41
2022-11-28T06:39:20.741Z,6.48
2022-11-28T06:39:52.287Z,6.43
2022-11-28T06:40:23.774Z,6.41
2022-11-28T06:40:59.933Z,6.44
2022-11-28T06:41:31.548Z,6.46
2022-11-28T06:42:03.215Z,6.50
2022-11-28T06:42:37.662Z,6.51
2022-11-28T06:43:09.101Z,6.42
2022-11-28T06:43:40.957Z,6.45
2022-11-28T06:44:14.582Z,6.45
2022-11-28T06:44:46.030Z,6.53
2022-11-28T06:45:17.991Z,6.45
2022-11-28T06:45:49.442Z,6.45
2022-11-28T06:46:21.757Z,6.49
2022-11-28T06:46:54.805Z,6.50
2022-11-28T06:47:26.232Z,6.51
2022-11-28T06:47:57.789Z,6.49
2022-11-28T06:48:29.553Z,6.46
2022-11-28T06:49:01.108Z,6.45
2022-11-28T06:49:32.605Z,6.40
2022-11-28T06:50:04.437Z,6.52
2022-11-28T06:50:35.875Z,6.48
2022-11-28T06:51:07.445Z,6.47
2022-11-28T06:51:40.397Z,6.45
2022-11-28T06:52:11.867Z,6.50
2022-11-28T06:52:43.295Z,6.44
2022-11-28T06:53:14.764Z,6.38
2022-11-28T06:53:46.309Z,6.54
2022-11-28T06:54:17.746Z,6.42
2022-11-28T06:54:49.351Z,6.46
2022-11-28T06:55:20.875Z,6.39
2022-11-28T06:55:52.337Z,6.46
2022-11-28T06:56:23.906Z,6.42
2022-11-28T06:56:55.421Z,6.58
2022-11-28T06:57:28.082Z,6.49
2022-11-28T06:57:59.510Z,6.56
2022-11-28T06:58:30.961Z,6.49
2022-11-28T06:59:02.457Z,6.55
2022-11-28T06:59:34.061Z,6.53
2022-11-28T07:00:06.442Z,6.45
2022-11-28T07:00:38.502Z,6.38
2022-11-28T07:01:13.315Z,6.38
2022-11-28T07:01:45.281Z,6.38
2022-11-28T07:02:17.125Z,6.39
2022-11-28T07:02:48.795Z,6.41
2022-11-28T07:03:20.277Z,6.34
2022-11-28T07:03:54.331Z,6.34
2022-11-28T07:04:25.793Z,6.35
2022-11-28T07:04:57.254Z,6.42
2022-11-28T07:05:28.761Z,6.37
2022-11-28T07:06:02.129Z,6.39
2022-11-28T07:06:34.266Z,6.35
2022-11-28T07:07:05.742Z,6.36
2022-11-28T07:07:50.194Z,6.33
2022-11-28T07:08:25.492Z,6.40
2022-11-28T07:08:58.271Z,6.51
2022-11-28T07:09:29.887Z,6.37
2022-11-28T07:10:01.386Z,6.36
2022-11-28T07:10:33.243Z,6.34
2022-11-28T07:11:32.097Z,6.38
2022-11-28T07:12:03.704Z,6.45
2022-11-28T07:12:35.304Z,6.48
2022-11-28T07:13:07.537Z,6.50
2022-11-28T07:13:40.413Z,6.47
2022-11-28T07:14:12.033Z,6.56
2022-11-28T07:14:43.591Z,6.53
2022-11-28T07:15:15.141Z,6.46
2022-11-28T07:15:50.905Z,6.49
2022-11-28T07:16:25.246Z,6.50
2022-11-28T07:16:56.756Z,6.49
2022-11-28T07:17:28.252Z,6.49
2022-11-28T07:17:59.676Z,6.47
2022-11-28T07:18:31.730Z,6.42
2022-11-28T07:19:04.193Z,6.40
2022-11-28T07:19:35.971Z,6.37
2022-11-28T07:20:08.168Z,6.44
2022-11-28T07:20:39.645Z,6.51
2022-11-28T07:21:11.649Z,6.50
2022-11-28T07:21:43.149Z,6.45
2022-11-28T07:22:14.786Z,6.41
2022-11-28T07:22:48.126Z,6.47
2022-11-28T07:23:19.589Z,6.40
2022-11-28T07:23:51.554Z,6.45
2022-11-28T07:24:23.269Z,6.42
2022-11-28T07:24:54.734Z,6.47
2022-11-28T07:25:26.264Z,6.39
2022-11-28T07:25:59.894Z,6.39
2022-11-28T07:26:31.401Z,6.39
2022-11-28T07:27:02.911Z,6.39
2022-11-28T07:27:34.369Z,6.40
2022-11-28T07:28:06.029Z,6.51
2022-11-28T07:28:37.716Z,6.51
2022-11-28T07:29:14.560Z,6.67
2022-11-28T07:29:46.050Z,6.56
2022-11-28T07:30:17.590Z,6.51
2022-11-28T07:30:49.103Z,6.54
2022-11-28T07:31:25.416Z,6.57
2022-11-28T07:31:56.953Z,6.60
2022-11-28T07:32:28.520Z,6.49
2022-11-28T07:33:00.054Z,6.55
2022-11-28T07:33:31.965Z,6.45
2022-11-28T07:34:03.689Z,6.45
2022-11-28T07:34:35.357Z,6.45
2022-11-28T07:35:08.716Z,6.46
2022-11-28T07:35:40.188Z,6.53
2022-11-28T07:36:13.950Z,6.46
2022-11-28T07:36:45.446Z,6.50
2022-11-28T07:37:16.952Z,6.43
2022-11-28T07:37:48.482Z,6.57
2022-11-28T07:38:19.938Z,6.45
2022-11-28T07:38:56.992Z,6.39
2022-11-28T07:39:28.456Z,6.40
2022-11-28T07:39:59.925Z,6.37
2022-11-28T07:40:31.381Z,6.39
2022-11-28T07:41:11.139Z,6.46
2022-11-28T07:41:42.697Z,6.50
2022-11-28T07:42:14.176Z,6.47
2022-11-28T07:42:46.134Z,6.40
2022-11-28T07:43:18.130Z,6.51
2022-11-28T07:43:52.836Z,6.43
2022-11-28T07:44:24.313Z,6.41
2022-11-28T07:44:55.777Z,6.48
2022-11-28T07:45:41.890Z,6.43
2022-11-28T07:46:19.655Z,6.38
2022-11-28T07:46:51.232Z,6.51
2022-11-28T07:47:22.730Z,6.41
2022-11-28T07:47:54.322Z,6.42
2022-11-28T07:48:26.273Z,6.43
2022-11-28T07:49:16.064Z,6.52
2022-11-28T07:49:47.538Z,6.51
2022-11-28T07:50:19.013Z,6.50
2022-11-28T07:50:50.513Z,6.44
2022-11-28T07:51:24.421Z,6.48
2022-11-28T07:51:55.962Z,6.42